Pine City, Arkansas
Current Conditions -  °F | °C
As of 5:55 PM on Thursday 18 Dec 2014 (Local Time) from KSGT Reporting Station
Overcast Overcast  
Wind Chill: 43°   Ceiling: 1000
Heat Index: 43°   Visibility: NA
Dew Point: 39°   Wind: 3mph
Humidity: 87%   Direction: 10°N
Pressure: 30.21"   Gusts: NA
Location:  34.5919°N, 91.1409°W
Report Text: KSGT 182355Z 01003KT BKN010 OVC031 06/04 A3021 RMK AO1 10060 20050 400600030 52010
Loading
Personal Weather Stations






























Interactive Weather Map New forecast layout! Learn more

10-Day Weather Forecast

Advertisements
Track Severe Weather on mobile